Aérodrome :
LOGIN :

S'inscrire | Disclaimer

   EN    FR    IT 

 










Légende :    VFR   VFR Marginal   IFR   IFR Intensif   IFR Très Intensif
Visi : 
Plafond : 
>= 8 km
>= 3000ft
5 à 8 km
1000 à 3000 ft
1500m à 5 km
500 à 1000 ft
800 à 1500m
200 à 500 ft
< 800m
< 200 ft
Symboles :   Orages  Brouillard  Fortes neiges  Fortes précipitations  Vent > 20 kt
SIGMETs :   Divers  Orages  Givrage  Turbulence  Onde Orograph.  Cendres Volcan.






- Altitude de l'aérodrome : 170 ft
- Code IATA : KRP


EKKA - Karup

DERNIER METAR :
  • 151450Z AUTO 23010KT 9999 OVC035/// 17/12 Q1011

METARs EXPIRÉS :
  • 151420Z AUTO 22012KT 9999 OVC028/// 17/11 Q1011
  • 151350Z AUTO 24010KT 9999 OVC026/// 18/12 Q1011
  • 151320Z AUTO 23013KT 9999 OVC023/// 17/12 Q1010 NOSIG
  • 151250Z AUTO 25013KT 9999 BKN028/// 17/13 Q1010 NOSIG
  • 151220Z AUTO 25013KT 210V270 9999 FEW015/// BKN036/// 18/14 Q1010 NOSIG
  • 151150Z 22008KT 9999 SCT020 16/14 Q1009 NOSIG
  • 151120Z 23013KT 7000 -RA BKN020 15/14 Q1009 BECMG 9999
  • 151103Z 24011KT 4000 -SHRA BKN012 SCT030CB 16/14 Q1009 BECMG 9999 SCT012
  • 151050Z 24012KT 5000 -SHRA BKN010 SCT030CB 16/14 Q1009 BECMG 9999 SCT012
  • 151020Z AUTO 23009KT 200V270 9999 OVC021/// 17/13 Q1009 TEMPO BKN012

TAF TAF EKKA
Valide du 15 à 15h jusqu'au 16 à 15h UTC


151405Z 1515/1615 23008KT 9999 SCT030
BECMG 1600/1602 09006KT
TEMPO 1602/1605 5000 BR
TEMPO 1606/1611 7000 -RA SCT030CB
BECMG 1611/1613 3000 BR RA BKN006 SCT030CB
BECMG 1613/1615 22008KT 9999 NSW BKN020



MET'MAP, la Météo Aéronautique d'un coup d'oeil ! - Copyright ORBIFLY Décembre 2007 - Disclaimer

ORBIFLY MET'MAP TEAM :

Programmation & Développement : Alexandra Zaïnal
Sur une idée originale de : Baudouin d'Aumeries
Soutien technique & logistique : Manuel Goepfert
Assistance : Marc-Olivier Méhu




SOURCES & CREDITS :

   NOAA